Time;durP1;ratioP1;P1;durP2;ratioP2;P2;SDS_P1;SDS_P2;PMS_P1;PMS_P2;Temp;Humidity;BMP_temperature;BMP_pressure;BME280_temperature;BME280_humidity;BME280_pressure;Samples;Min_cycle;Max_cycle;Signal;HPM_P1;HPM_P2
2022/08/04 00:01:34;;;;;;;8.77;3.05;;;;;;;-148.14;100.00;65945.72;5034715;28;20078;-82
2022/08/04 00:04:03;;;;;;;12.73;3.10;;;;;;;-148.14;100.00;65945.72;5015903;28;20135;-82
2022/08/04 00:06:47;;;;;;;13.60;3.47;;;;;;;-148.14;100.00;65945.72;5054660;28;20108;-83
2022/08/04 00:09:18;;;;;;;10.27;3.70;;;;;;;-148.14;100.00;65945.72;5034592;28;20037;-82
2022/08/04 00:11:47;;;;;;;15.32;3.47;;;;;;;-148.14;100.00;65945.72;5018927;28;20040;-84
2022/08/04 00:14:15;;;;;;;4.72;2.80;;;;;;;-148.14;100.00;65945.72;5032596;28;20033;-84
2022/08/04 00:16:42;;;;;;;9.73;3.42;;;;;;;-148.14;100.00;65945.72;5018753;28;20033;-83
2022/08/04 00:19:10;;;;;;;6.55;2.88;;;;;;;-148.14;100.00;65945.72;5034645;28;20470;-82
2022/08/04 00:21:41;;;;;;;9.63;3.38;;;;;;;-148.14;100.00;65945.72;5035229;28;20447;-82
2022/08/04 00:24:07;;;;;;;7.07;3.13;;;;;;;-148.14;100.00;65945.72;5034720;28;20083;-82
2022/08/04 00:26:33;;;;;;;10.73;3.25;;;;;;;-148.14;100.00;65945.72;5052669;28;20502;-83
2022/08/04 00:28:59;;;;;;;10.48;2.88;;;;;;;-148.14;100.00;65945.72;5034860;28;20033;-83
2022/08/04 00:31:26;;;;;;;15.52;3.72;;;;;;;-148.14;100.00;65945.72;5017800;28;20486;-82
2022/08/04 00:33:53;;;;;;;8.75;3.65;;;;;;;-148.14;100.00;65945.72;5034757;28;20029;-84
2022/08/04 00:36:20;;;;;;;9.15;3.40;;;;;;;-148.14;100.00;65945.72;5054023;28;20021;-83
2022/08/04 00:38:46;;;;;;;8.90;3.53;;;;;;;-148.14;100.00;65945.72;5034721;28;20438;-82
2022/08/04 00:41:41;;;;;;;10.73;3.83;;;;;;;-148.14;100.00;65945.72;5029203;28;20452;-82
2022/08/04 00:44:21;;;;;;;10.50;3.28;;;;;;;-148.14;100.00;65945.72;5051765;28;20120;-86
2022/08/04 00:47:21;;;;;;;7.75;3.22;;;;;;;-148.14;100.00;65945.72;5051577;28;20028;-86
2022/08/04 00:50:11;;;;;;;8.10;3.38;;;;;;;-148.14;100.00;65945.72;5033966;28;20143;-84
2022/08/04 00:52:45;;;;;;;12.80;3.58;;;;;;;-148.14;100.00;65945.72;5018014;28;20060;-85
2022/08/04 00:55:44;;;;;;;12.60;3.72;;;;;;;-148.14;100.00;65945.72;5034315;28;20025;-83
2022/08/04 00:58:22;;;;;;;10.07;3.28;;;;;;;-148.14;100.00;65945.72;5025862;28;20029;-84
2022/08/04 01:00:57;;;;;;;9.65;3.22;;;;;;;-148.14;100.00;65945.72;5017786;28;20033;-84
2022/08/04 01:03:41;;;;;;;7.88;2.83;;;;;;;-148.14;100.00;65945.72;5025422;28;20128;-83
2022/08/04 01:06:15;;;;;;;;;;;;;;;-148.14;100.00;65945.72;5051138;28;21387;-83
2022/08/04 01:09:03;;;;;;;8.13;3.25;;;;;;;-148.14;100.00;65945.72;5051522;28;19929;-85
2022/08/04 01:11:53;;;;;;;7.43;2.85;;;;;;;-148.14;100.00;65945.72;5042065;28;20448;-85
2022/08/04 01:14:40;;;;;;;7.57;3.55;;;;;;;-148.14;100.00;65945.72;5020817;28;20476;-83
2022/08/04 01:17:19;;;;;;;10.23;3.35;;;;;;;-148.14;100.00;65945.72;5025780;28;20032;-83
2022/08/04 01:19:54;;;;;;;6.75;2.97;;;;;;;-148.14;100.00;65945.72;5018397;28;20041;-83
2022/08/04 01:22:26;;;;;;;10.70;3.10;;;;;;;-148.14;100.00;65945.72;5038901;28;20540;-83
2022/08/04 01:24:54;;;;;;;9.18;3.30;;;;;;;-148.14;100.00;65945.72;5033856;28;20415;-83
2022/08/04 01:27:42;;;;;;;10.18;3.40;;;;;;;-148.14;100.00;65945.72;5050961;28;20395;-83
2022/08/04 01:30:07;;;;;;;6.13;3.03;;;;;;;-148.14;100.00;65945.72;5023733;28;20487;-84
2022/08/04 01:32:57;;;;;;;7.40;3.05;;;;;;;-148.14;100.00;65945.72;5049220;28;20040;-83
2022/08/04 01:35:27;;;;;;;15.35;3.42;;;;;;;-148.14;100.00;65945.72;5051606;28;20025;-84
2022/08/04 01:38:17;;;;;;;9.70;3.10;;;;;;;-148.14;100.00;65945.72;5023328;28;20476;-85
2022/08/04 01:40:44;;;;;;;10.23;4.28;;;;;;;-148.14;100.00;65945.72;5050896;28;20025;-84
2022/08/04 01:43:12;;;;;;;9.45;3.35;;;;;;;-148.14;100.00;65945.72;5052361;28;20384;-84
2022/08/04 01:45:39;;;;;;;8.18;3.17;;;;;;;-148.14;100.00;65945.72;5051614;28;20475;-83
2022/08/04 01:48:06;;;;;;;8.35;3.20;;;;;;;-148.14;100.00;65945.72;5026350;28;20475;-83
2022/08/04 01:50:34;;;;;;;8.88;3.17;;;;;;;-148.14;100.00;65945.72;5032486;28;20030;-84
2022/08/04 01:53:02;;;;;;;10.02;3.60;;;;;;;-148.14;100.00;65945.72;5032013;28;20028;-84
2022/08/04 01:55:29;;;;;;;6.40;3.00;;;;;;;-148.14;100.00;65945.72;5051548;28;20033;-83
2022/08/04 01:57:59;;;;;;;15.93;3.50;;;;;;;-148.14;100.00;65945.72;5006894;28;20035;-83
2022/08/04 02:00:27;;;;;;;9.73;3.53;;;;;;;-148.14;100.00;65945.72;5023006;28;20475;-83
2022/08/04 02:02:55;;;;;;;8.48;3.38;;;;;;;-148.14;100.00;65945.72;5050458;28;20029;-83
2022/08/04 02:05:25;;;;;;;10.98;3.72;;;;;;;-148.14;100.00;65945.72;5052421;28;20033;-83
2022/08/04 02:08:24;;;;;;;4.88;3.15;;;;;;;-148.14;100.00;65945.72;5028266;28;20475;-84
2022/08/04 02:10:49;;;;;;;10.25;3.67;;;;;;;-148.14;100.00;65945.72;5012404;28;20049;-83
2022/08/04 02:13:22;;;;;;;11.13;3.63;;;;;;;-148.14;100.00;65945.72;5021738;28;20044;-84
2022/08/04 02:16:06;;;;;;;5.95;3.40;;;;;;;-148.14;100.00;65945.72;5038142;28;20082;-86
2022/08/04 02:18:41;;;;;;;6.50;3.30;;;;;;;-148.14;100.00;65945.72;5054277;28;20025;-83
2022/08/04 02:21:07;;;;;;;10.52;3.67;;;;;;;-148.14;100.00;65945.72;5038078;28;20035;-85
2022/08/04 02:23:42;;;;;;;11.48;4.25;;;;;;;-148.14;100.00;65945.72;5029150;28;20478;-84
2022/08/04 02:26:15;;;;;;;9.50;3.78;;;;;;;-148.14;100.00;65945.72;5021144;28;20360;-83
2022/08/04 02:29:26;;;;;;;9.30;3.75;;;;;;;-148.14;100.00;65945.72;5037294;28;20035;-84
2022/08/04 02:31:58;;;;;;;13.98;4.10;;;;;;;-148.14;100.00;65945.72;4994889;28;20048;-84
2022/08/04 02:34:28;;;;;;;8.75;3.72;;;;;;;-148.14;100.00;65945.72;5019226;28;20025;-84
2022/08/04 02:36:55;;;;;;;12.40;4.35;;;;;;;-148.14;100.00;65945.72;5020129;28;20041;-84
2022/08/04 02:39:22;;;;;;;8.43;3.25;;;;;;;-148.14;100.00;65945.72;5036972;28;20025;-84
2022/08/04 02:41:49;;;;;;;10.35;3.53;;;;;;;-148.14;100.00;65945.72;5010472;28;20523;-83
2022/08/04 02:44:21;;;;;;;6.90;3.25;;;;;;;-148.14;100.00;65945.72;5036697;28;20036;-83
2022/08/04 02:46:49;;;;;;;11.43;3.38;;;;;;;-148.14;100.00;65945.72;5020469;28;20059;-83
2022/08/04 02:49:17;;;;;;;9.30;3.92;;;;;;;-148.14;100.00;65945.72;5024686;28;20029;-84
2022/08/04 02:51:48;;;;;;;10.88;3.63;;;;;;;-148.14;100.00;65945.72;5035218;28;20035;-85
2022/08/04 02:54:16;;;;;;;7.15;3.17;;;;;;;-148.14;100.00;65945.72;5054600;28;20032;-84
2022/08/04 02:56:44;;;;;;;12.45;3.85;;;;;;;-148.14;100.00;65945.72;5017289;28;20086;-84
2022/08/04 02:59:11;;;;;;;9.23;3.97;;;;;;;-148.14;100.00;65945.72;5020400;28;20491;-83
2022/08/04 03:01:38;;;;;;;12.02;4.05;;;;;;;-148.14;100.00;65945.72;5034517;28;20025;-84
2022/08/04 03:04:16;;;;;;;10.93;3.63;;;;;;;-148.14;100.00;65945.72;5019758;28;20129;-83
2022/08/04 03:07:02;;;;;;;5.30;3.60;;;;;;;-148.14;100.00;65945.72;5019816;28;20037;-84
2022/08/04 03:09:37;;;;;;;11.50;3.83;;;;;;;-148.14;100.00;65945.72;5052476;28;20104;-84
2022/08/04 03:12:25;;;;;;;8.88;3.83;;;;;;;-148.14;100.00;65945.72;5034855;28;20037;-85
2022/08/04 03:15:23;;;;;;;7.75;3.85;;;;;;;-148.14;100.00;65945.72;5052843;28;20029;-85
2022/08/04 03:18:00;;;;;;;12.23;4.50;;;;;;;-148.14;100.00;65945.72;5023488;28;20028;-84
2022/08/04 03:20:45;;;;;;;11.55;3.80;;;;;;;-148.14;100.00;65945.72;5053057;28;20029;-83
2022/08/04 03:23:35;;;;;;;10.18;4.13;;;;;;;-148.14;100.00;65945.72;5025540;28;20488;-85
2022/08/04 03:26:09;;;;;;;14.23;4.18;;;;;;;-148.14;100.00;65945.72;5031695;28;20029;-86
2022/08/04 03:29:14;;;;;;;10.98;3.80;;;;;;;-148.14;100.00;65945.72;5035630;28;20044;-82
2022/08/04 03:31:47;;;;;;;9.13;4.30;;;;;;;-148.14;100.00;65945.72;5018170;28;20040;-86
2022/08/04 03:34:34;;;;;;;11.43;4.60;;;;;;;-148.14;100.00;65945.72;5034173;28;20057;-85
2022/08/04 03:37:36;;;;;;;8.65;4.95;;;;;;;-148.14;100.00;65945.72;5052942;28;20039;-85
2022/08/04 03:40:35;;;;;;;7.07;5.35;;;;;;;-148.14;100.00;65945.72;5051285;28;20094;-83
2022/08/04 03:43:18;;;;;;;17.35;7.03;;;;;;;-148.14;100.00;65945.72;5051677;28;20475;-84
2022/08/04 03:46:12;;;;;;;11.52;7.60;;;;;;;-148.14;100.00;65945.72;5018962;28;20368;-86
2022/08/04 03:49:17;;;;;;;15.48;8.15;;;;;;;-148.14;100.00;65945.72;5052994;28;20029;-85
2022/08/04 03:54:57;;;;;;;16.98;7.78;;;;;;;-148.14;100.00;65945.72;5052383;28;20025;-84
2022/08/04 03:57:42;;;;;;;15.05;8.82;;;;;;;-148.14;100.00;65945.72;5051738;28;20357;-84
2022/08/04 04:00:12;;;;;;;10.55;6.68;;;;;;;-148.14;100.00;65945.72;5052522;28;20379;-84
2022/08/04 04:02:44;;;;;;;16.38;7.55;;;;;;;-148.14;100.00;65945.72;5024370;28;20032;-84
2022/08/04 04:05:31;;;;;;;11.82;6.28;;;;;;;-148.14;100.00;65945.72;5027388;28;20076;-84
2022/08/04 04:08:06;;;;;;;14.32;8.02;;;;;;;-148.14;100.00;65945.72;5018530;28;20040;-84
2022/08/04 04:10:40;;;;;;;12.18;8.05;;;;;;;-148.14;100.00;65945.72;5026989;28;20033;-82
2022/08/04 04:13:48;;;;;;;19.10;7.93;;;;;;;-148.14;100.00;65945.72;5018269;28;20029;-83
2022/08/04 04:16:39;;;;;;;10.23;6.97;;;;;;;-148.14;100.00;65945.72;4996669;28;20072;-82
2022/08/04 04:19:21;;;;;;;14.77;7.07;;;;;;;-148.14;100.00;65945.72;5052843;28;20029;-83
2022/08/04 04:22:14;;;;;;;16.83;8.98;;;;;;;-148.14;100.00;65945.72;5051822;28;20047;-83
2022/08/04 04:24:55;;;;;;;14.45;9.05;;;;;;;-148.14;100.00;65945.72;5018269;28;20037;-83
2022/08/04 04:27:35;;;;;;;15.32;8.80;;;;;;;-148.14;100.00;65945.72;5018179;28;20040;-84
2022/08/04 04:30:22;;;;;;;18.33;10.30;;;;;;;-148.14;100.00;65945.72;5049865;28;20040;-84
2022/08/04 04:33:38;;;;;;;16.77;11.30;;;;;;;-148.14;100.00;65945.72;5007482;28;20057;-84
2022/08/04 04:36:34;;;;;;;20.08;10.38;;;;;;;-148.14;100.00;65945.72;4991469;28;20034;-84
2022/08/04 04:39:11;;;;;;;16.02;11.73;;;;;;;-148.14;100.00;65945.72;4974826;28;20042;-85
2022/08/04 04:41:53;;;;;;;15.50;11.57;;;;;;;-148.14;100.00;65945.72;5010031;28;20408;-85
2022/08/04 04:44:53;;;;;;;20.70;11.07;;;;;;;-148.14;100.00;65945.72;5034713;28;20032;-84
2022/08/04 04:47:41;;;;;;;16.65;11.00;;;;;;;-148.14;100.00;65945.72;5017130;28;20410;-84
2022/08/04 04:50:33;;;;;;;15.55;10.38;;;;;;;-148.14;100.00;65945.72;5051067;28;20025;-83
2022/08/04 04:53:13;;;;;;;15.95;11.13;;;;;;;-148.14;100.00;65945.72;5050578;28;20116;-84
2022/08/04 04:55:44;;;;;;;16.85;10.63;;;;;;;-148.14;100.00;65945.72;5025855;28;20056;-82
2022/08/04 04:58:15;;;;;;;14.48;8.82;;;;;;;-148.14;100.00;65945.72;5033107;28;20028;-82
2022/08/04 05:01:02;;;;;;;11.68;9.70;;;;;;;-148.14;100.00;65945.72;5050556;28;20050;-83
2022/08/04 05:03:40;;;;;;;13.80;9.10;;;;;;;-148.14;100.00;65945.72;5050185;28;20094;-82
2022/08/04 05:06:42;;;;;;;11.60;8.65;;;;;;;-148.14;100.00;65945.72;5014191;28;20094;-83
2022/08/04 05:09:28;;;;;;;13.60;8.40;;;;;;;-148.14;100.00;65945.72;5050816;28;20052;-84
2022/08/04 05:11:53;;;;;;;17.10;8.52;;;;;;;-148.14;100.00;65945.72;5026450;28;20033;-84
2022/08/04 05:14:22;;;;;;;13.23;7.80;;;;;;;-148.14;100.00;65945.72;5032969;28;20037;-84
2022/08/04 05:16:55;;;;;;;13.02;7.60;;;;;;;-148.14;100.00;65945.72;5017018;28;20110;-83
2022/08/04 05:19:24;;;;;;;11.07;7.75;;;;;;;-148.14;100.00;65945.72;5049503;28;20502;-83
2022/08/04 05:21:59;;;;;;;10.00;7.13;;;;;;;-148.14;100.00;65945.72;5033241;28;20055;-85
2022/08/04 05:24:26;;;;;;;11.35;7.40;;;;;;;-148.14;100.00;65945.72;5027593;28;20040;-86
2022/08/04 05:27:01;;;;;;;8.15;6.18;;;;;;;-148.14;100.00;65945.72;5041737;28;20053;-83
2022/08/04 05:29:39;;;;;;;11.30;6.00;;;;;;;-148.14;100.00;65945.72;5032410;28;20136;-83
2022/08/04 05:32:13;;;;;;;9.18;5.43;;;;;;;-148.14;100.00;65945.72;5024573;28;20033;-84
2022/08/04 05:34:43;;;;;;;9.30;5.28;;;;;;;-148.14;100.00;65945.72;5001078;28;20100;-84
2022/08/04 05:37:14;;;;;;;6.55;4.38;;;;;;;-148.14;100.00;65945.72;5026929;28;20491;-83
2022/08/04 05:39:46;;;;;;;5.45;3.70;;;;;;;-148.14;100.00;65945.72;5019668;28;20108;-85
2022/08/04 05:42:13;;;;;;;4.35;3.40;;;;;;;-148.14;100.00;65945.72;5055329;28;20017;-84
2022/08/04 05:44:40;;;;;;;6.45;3.13;;;;;;;-148.14;100.00;65945.72;5023397;28;20055;-83
2022/08/04 05:47:07;;;;;;;5.43;3.10;;;;;;;-148.14;100.00;65945.72;5053813;28;20044;-83
2022/08/04 05:49:34;;;;;;;3.72;2.85;;;;;;;-148.14;100.00;65945.72;5028881;28;20029;-85
2022/08/04 05:52:02;;;;;;;3.17;2.88;;;;;;;-148.14;100.00;65945.72;5029280;28;20083;-82
2022/08/04 05:54:34;;;;;;;4.18;2.95;;;;;;;-148.14;100.00;65945.72;5053246;28;20033;-84
2022/08/04 05:57:03;;;;;;;3.40;3.10;;;;;;;-148.14;100.00;65945.72;5055290;28;20075;-85
2022/08/04 05:59:30;;;;;;;8.05;3.72;;;;;;;-148.14;100.00;65945.72;5011965;28;20063;-85
2022/08/04 06:01:59;;;;;;;7.68;3.45;;;;;;;-148.14;100.00;65945.72;5019609;28;20036;-83
2022/08/04 06:04:36;;;;;;;5.03;3.80;;;;;;;-148.14;100.00;65945.72;5020807;28;20620;-86
2022/08/04 06:07:02;;;;;;;10.13;3.50;;;;;;;-148.14;100.00;65945.72;5037096;28;20135;-85
2022/08/04 06:09:30;;;;;;;5.22;3.20;;;;;;;-148.14;100.00;65945.72;5028759;28;20073;-85
2022/08/04 06:12:01;;;;;;;6.72;3.60;;;;;;;-148.14;100.00;65945.72;5036706;28;20033;-84
2022/08/04 06:14:32;;;;;;;4.53;3.60;;;;;;;-148.14;100.00;65945.72;5036673;28;20029;-85
2022/08/04 06:16:59;;;;;;;3.88;3.53;;;;;;;-148.14;100.00;65945.72;5030900;28;20433;-86
2022/08/04 06:19:27;;;;;;;6.22;3.53;;;;;;;-148.14;100.00;65945.72;5033250;28;20040;-84
2022/08/04 06:21:55;;;;;;;4.70;3.50;;;;;;;-148.14;100.00;65945.72;5037400;28;20079;-82
2022/08/04 06:24:27;;;;;;;6.78;3.53;;;;;;;-148.14;100.00;65945.72;5037181;28;20534;-85
2022/08/04 06:26:53;;;;;;;7.65;2.85;;;;;;;-148.14;100.00;65945.72;5020843;28;20371;-85
2022/08/04 06:29:54;;;;;;;6.20;2.90;;;;;;;-148.14;100.00;65945.72;5053905;28;20036;-81
2022/08/04 06:32:35;;;;;;;3.67;2.88;;;;;;;-148.14;100.00;65945.72;5025576;28;20041;-86
2022/08/04 06:35:04;;;;;;;6.30;2.60;;;;;;;-148.14;100.00;65945.72;5036075;28;20049;-84
2022/08/04 06:37:31;;;;;;;5.32;2.83;;;;;;;-148.14;100.00;65945.72;5026829;28;20036;-83
2022/08/04 06:39:57;;;;;;;4.50;2.47;;;;;;;-148.14;100.00;65945.72;5010938;28;20025;-84
2022/08/04 06:42:25;;;;;;;5.97;2.70;;;;;;;-148.14;100.00;65945.72;5027000;28;20040;-84
2022/08/04 06:44:56;;;;;;;4.68;2.75;;;;;;;-148.14;100.00;65945.72;5010074;28;20036;-82
2022/08/04 06:47:23;;;;;;;4.65;2.50;;;;;;;-148.14;100.00;65945.72;5028487;28;20029;-83
2022/08/04 06:49:51;;;;;;;3.00;2.53;;;;;;;-148.14;100.00;65945.72;5017925;28;20041;-83
2022/08/04 06:52:19;;;;;;;5.40;2.72;;;;;;;-148.14;100.00;65945.72;5053010;28;20387;-83
2022/08/04 06:54:46;;;;;;;4.78;2.47;;;;;;;-148.14;100.00;65945.72;5052850;28;20035;-84
2022/08/04 06:57:15;;;;;;;5.72;2.80;;;;;;;-148.14;100.00;65945.72;5034610;28;20037;-83
2022/08/04 06:59:46;;;;;;;3.38;2.50;;;;;;;-148.14;100.00;65945.72;5028432;28;20039;-83
2022/08/04 07:02:19;;;;;;;5.97;2.80;;;;;;;-148.14;100.00;65945.72;5021038;28;20034;-82
2022/08/04 07:04:46;;;;;;;9.35;2.42;;;;;;;-148.14;100.00;65945.72;5025485;28;20044;-84
2022/08/04 07:07:12;;;;;;;5.13;2.35;;;;;;;-148.14;100.00;65945.72;5023982;28;20061;-84
2022/08/04 07:09:39;;;;;;;6.28;2.35;;;;;;;-148.14;100.00;65945.72;5026762;28;20025;-81
2022/08/04 07:12:06;;;;;;;3.05;2.40;;;;;;;-148.14;100.00;65945.72;5034993;28;20507;-82
2022/08/04 07:14:34;;;;;;;4.38;2.38;;;;;;;-148.14;100.00;65945.72;5030495;28;20098;-82
2022/08/04 07:17:03;;;;;;;6.05;2.65;;;;;;;-148.14;100.00;65945.72;5018243;28;20534;-82
2022/08/04 07:19:31;;;;;;;5.05;2.00;;;;;;;-148.14;100.00;65945.72;5021211;28;20029;-86
2022/08/04 07:21:59;;;;;;;3.60;1.92;;;;;;;-148.14;100.00;65945.72;5020284;28;20045;-90
2022/08/04 07:24:32;;;;;;;6.60;2.10;;;;;;;-148.14;100.00;65945.72;5036686;28;20037;-87
2022/08/04 07:26:59;;;;;;;5.88;2.00;;;;;;;-148.14;100.00;65945.72;5013037;28;20052;-90
2022/08/04 07:29:25;;;;;;;5.10;1.88;;;;;;;-148.14;100.00;65945.72;5040673;28;20483;-83
2022/08/04 07:31:52;;;;;;;2.70;1.80;;;;;;;-148.14;100.00;65945.72;5027412;28;20391;-86
2022/08/04 07:34:22;;;;;;;5.75;2.03;;;;;;;-148.14;100.00;65945.72;5022109;28;20029;-89
2022/08/04 07:36:50;;;;;;;5.13;2.22;;;;;;;-148.14;100.00;65945.72;5028708;28;20051;-88
2022/08/04 07:39:15;;;;;;;4.63;1.90;;;;;;;-148.14;100.00;65945.72;5037616;28;20041;-89
2022/08/04 07:41:42;;;;;;;4.82;2.10;;;;;;;-148.14;100.00;65945.72;5027663;28;20053;-88
2022/08/04 07:44:09;;;;;;;5.28;2.05;;;;;;;-148.14;100.00;65945.72;5022294;28;20025;-84
2022/08/04 07:46:35;;;;;;;5.38;1.83;;;;;;;-148.14;100.00;65945.72;5041116;28;20433;-86
2022/08/04 07:49:02;;;;;;;7.28;1.73;;;;;;;-148.14;100.00;65945.72;5008702;28;20032;-86
2022/08/04 07:51:29;;;;;;;4.22;1.58;;;;;;;-148.14;100.00;65945.72;5025433;28;20033;-84
2022/08/04 07:53:56;;;;;;;5.28;1.67;;;;;;;-148.14;100.00;65945.72;5018389;28;20029;-85
2022/08/04 07:56:21;;;;;;;6.13;2.10;;;;;;;-148.14;100.00;65945.72;5034861;28;20025;-84
2022/08/04 07:58:48;;;;;;;5.72;2.17;;;;;;;-148.14;100.00;65945.72;5034374;28;20052;-84
2022/08/04 08:01:14;;;;;;;7.72;2.13;;;;;;;-148.14;100.00;65945.72;5026735;28;20075;-82
2022/08/04 08:03:41;;;;;;;8.07;2.20;;;;;;;-148.14;100.00;65945.72;5033973;28;20482;-81
2022/08/04 08:06:08;;;;;;;6.00;1.92;;;;;;;-148.14;100.00;65945.72;5051194;28;20045;-81
2022/08/04 08:08:38;;;;;;;5.50;1.83;;;;;;;-148.14;100.00;65945.72;5025366;28;20498;-80
2022/08/04 08:11:04;;;;;;;3.67;1.80;;;;;;;-148.14;100.00;65945.72;5052585;28;20125;-82
2022/08/04 08:13:31;;;;;;;4.63;2.03;;;;;;;-148.14;100.00;65945.72;5050087;28;20099;-82
2022/08/04 08:15:58;;;;;;;5.78;2.30;;;;;;;-148.14;100.00;65945.72;5052015;28;20422;-81
2022/08/04 08:18:23;;;;;;;8.40;2.00;;;;;;;-148.14;100.00;65945.72;5052614;28;20102;-81
2022/08/04 08:20:51;;;;;;;5.80;2.33;;;;;;;-148.14;100.00;65945.72;5051415;28;20528;-82
2022/08/04 08:23:17;;;;;;;7.80;2.13;;;;;;;-148.14;100.00;65945.72;5044019;28;20426;-82
2022/08/04 08:25:43;;;;;;;4.18;2.08;;;;;;;-148.14;100.00;65945.72;5050510;28;20033;-82
2022/08/04 08:28:09;;;;;;;5.00;2.08;;;;;;;-148.14;100.00;65945.72;5034443;28;20025;-80
2022/08/04 08:30:37;;;;;;;4.88;2.10;;;;;;;-148.14;100.00;65945.72;5050702;28;20032;-83
2022/08/04 08:33:06;;;;;;;6.40;2.03;;;;;;;-148.14;100.00;65945.72;5031544;28;20028;-82
2022/08/04 08:35:51;;;;;;;7.10;2.28;;;;;;;-148.14;100.00;65945.72;5050206;28;20029;-82
2022/08/04 08:38:24;;;;;;;6.18;2.13;;;;;;;-148.14;100.00;65945.72;5016849;28;20099;-83
2022/08/04 08:41:02;;;;;;;4.47;1.88;;;;;;;-148.14;100.00;65945.72;5055874;28;20059;-89
2022/08/04 08:44:03;;;;;;;5.85;2.00;;;;;;;-148.14;100.00;65945.72;5054514;28;20095;-91
2022/08/04 08:47:00;;;;;;;3.67;2.00;;;;;;;-148.14;100.00;65945.72;5038411;28;20049;-89
2022/08/04 08:49:46;;;;;;;5.90;2.33;;;;;;;-148.14;100.00;65945.72;5052200;28;20044;-90
2022/08/04 08:53:02;;;;;;;5.80;2.00;;;;;;;-148.14;100.00;65945.72;5068555;28;20045;-90
2022/08/04 08:55:51;;;;;;;3.70;1.77;;;;;;;-148.14;100.00;65945.72;4998878;28;20080;-82
2022/08/04 08:58:38;;;;;;;6.30;2.22;;;;;;;-148.14;100.00;65945.72;5044478;28;20036;-90
2022/08/04 09:01:26;;;;;;;4.15;1.77;;;;;;;-148.14;100.00;65945.72;5047688;28;20036;-89
2022/08/04 09:04:19;;;;;;;4.68;2.55;;;;;;;-148.14;100.00;65945.72;5061450;28;20049;-90
2022/08/04 09:06:58;;;;;;;9.27;2.92;;;;;;;-148.14;100.00;65945.72;5038314;28;20053;-82
2022/08/04 09:09:49;;;;;;;3.15;1.95;;;;;;;-148.14;100.00;65945.72;5052511;28;20037;-90
2022/08/04 09:12:26;;;;;;;6.97;2.05;;;;;;;-148.14;100.00;65945.72;5010615;28;20044;-81
2022/08/04 09:15:12;;;;;;;5.80;1.92;;;;;;;-148.14;100.00;65945.72;5015596;28;20120;-82
2022/08/04 09:17:54;;;;;;;6.22;1.90;;;;;;;-148.14;100.00;65945.72;5049551;28;20496;-82
2022/08/04 09:20:41;;;;;;;5.65;2.03;;;;;;;-148.14;100.00;65945.72;5022960;28;20078;-82
2022/08/04 09:23:29;;;;;;;8.15;2.20;;;;;;;-148.14;100.00;65945.72;5023211;28;20475;-83
2022/08/04 09:26:08;;;;;;;3.78;1.85;;;;;;;-148.14;100.00;65945.72;5050680;28;20386;-80
2022/08/04 09:28:53;;;;;;;4.25;1.98;;;;;;;-148.14;100.00;65945.72;5049146;28;20032;-80
2022/08/04 09:31:36;;;;;;;3.42;1.75;;;;;;;-148.14;100.00;65945.72;5028184;28;20387;-80
2022/08/04 09:34:13;;;;;;;5.28;2.10;;;;;;;-148.14;100.00;65945.72;5027140;28;20294;-84
2022/08/04 09:36:55;;;;;;;4.00;1.77;;;;;;;-148.14;100.00;65945.72;5049513;28;20044;-84
2022/08/04 09:39:38;;;;;;;4.35;1.88;;;;;;;-148.14;100.00;65945.72;5050495;28;20047;-84
2022/08/04 09:42:40;;;;;;;3.78;1.80;;;;;;;-148.14;100.00;65945.72;5007281;28;20107;-87
2022/08/04 09:45:17;;;;;;;5.85;2.35;;;;;;;-148.14;100.00;65945.72;5010514;28;20037;-82
2022/08/04 09:47:52;;;;;;;5.25;1.73;;;;;;;-148.14;100.00;65945.72;5015102;28;20056;-84
2022/08/04 09:50:39;;;;;;;5.55;2.03;;;;;;;-148.14;100.00;65945.72;5017895;28;20029;-83
2022/08/04 09:53:31;;;;;;;2.70;2.00;;;;;;;-148.14;100.00;65945.72;5015046;28;20395;-82
2022/08/04 09:56:31;;;;;;;5.53;2.10;;;;;;;-148.14;100.00;65945.72;5009195;28;20044;-82
2022/08/04 09:59:10;;;;;;;3.72;2.10;;;;;;;-148.14;100.00;65945.72;5033603;28;20108;-83
2022/08/04 10:01:37;;;;;;;4.82;2.00;;;;;;;-148.14;100.00;65945.72;4998736;28;20037;-83
2022/08/04 10:04:08;;;;;;;6.70;1.90;;;;;;;-148.14;100.00;65945.72;5014716;28;20053;-83
2022/08/04 10:07:08;;;;;;;4.30;2.28;;;;;;;-148.14;100.00;65945.72;5014439;28;20036;-83
2022/08/04 10:10:02;;;;;;;6.90;2.35;;;;;;;-148.14;100.00;65945.72;5033774;28;20116;-82
2022/08/04 10:12:42;;;;;;;3.45;2.10;;;;;;;-148.14;100.00;65945.72;5033480;28;20048;-84
2022/08/04 10:15:14;;;;;;;2.53;2.08;;;;;;;-148.14;100.00;65945.72;5017216;28;20044;-83
2022/08/04 10:18:04;;;;;;;6.75;2.10;;;;;;;-148.14;100.00;65945.72;5016562;28;20437;-83
2022/08/04 10:20:58;;;;;;;4.68;2.10;;;;;;;-148.14;100.00;65945.72;5016746;28;20125;-84
2022/08/04 10:23:43;;;;;;;3.67;2.58;;;;;;;-148.14;100.00;65945.72;5041875;28;20154;-82
2022/08/04 10:26:25;;;;;;;4.20;2.10;;;;;;;-148.14;100.00;65945.72;5055999;28;20033;-83
2022/08/04 10:29:02;;;;;;;4.20;2.40;;;;;;;-148.14;100.00;65945.72;5019513;28;20045;-84
2022/08/04 10:31:34;;;;;;;3.60;2.20;;;;;;;-148.14;100.00;65945.72;5034859;28;20033;-82
2022/08/04 10:34:11;;;;;;;13.90;6.15;;;;;;;-148.14;100.00;65945.72;5056276;28;20033;-83
2022/08/04 10:36:53;;;;;;;9.00;2.80;;;;;;;-148.14;100.00;65945.72;5013234;28;20107;-84
2022/08/04 10:39:27;;;;;;;18.00;6.25;;;;;;;-148.14;100.00;65945.72;5036889;28;20037;-82
2022/08/04 10:42:15;;;;;;;8.23;3.25;;;;;;;-148.14;100.00;65945.72;5055631;28;20025;-83
2022/08/04 10:45:04;;;;;;;11.95;5.50;;;;;;;-148.14;100.00;65945.72;5018172;28;20029;-82
2022/08/04 10:47:40;;;;;;;12.60;4.10;;;;;;;-148.14;100.00;65945.72;5001968;28;20088;-83
2022/08/04 10:50:10;;;;;;;5.13;2.40;;;;;;;-148.14;100.00;65945.72;5020885;28;20025;-83
2022/08/04 10:52:59;;;;;;;5.43;2.65;;;;;;;-148.14;100.00;65945.72;5021908;28;20550;-83
2022/08/04 10:55:40;;;;;;;9.77;2.80;;;;;;;-148.14;100.00;65945.72;5030813;28;20379;-83
2022/08/04 10:58:12;;;;;;;5.65;3.13;;;;;;;-148.14;100.00;65945.72;5017850;28;20029;-85
2022/08/04 11:00:44;;;;;;;4.93;2.25;;;;;;;-148.14;100.00;65945.72;5033207;28;20029;-84
2022/08/04 11:03:20;;;;;;;4.80;2.78;;;;;;;-148.14;100.00;65945.72;5041679;28;20053;-84
2022/08/04 11:05:56;;;;;;;6.45;2.63;;;;;;;-148.14;100.00;65945.72;5005623;28;20032;-83
2022/08/04 11:08:24;;;;;;;5.10;2.95;;;;;;;-148.14;100.00;65945.72;5037357;28;20068;-83
2022/08/04 11:11:19;;;;;;;4.15;2.72;;;;;;;-148.14;100.00;65945.72;5020798;28;20106;-84
2022/08/04 11:13:59;;;;;;;5.47;2.60;;;;;;;-148.14;100.00;65945.72;5033820;28;20045;-83
2022/08/04 11:16:43;;;;;;;3.42;2.20;;;;;;;-148.14;100.00;65945.72;5018474;28;20030;-83
2022/08/04 11:19:37;;;;;;;8.35;3.00;;;;;;;-148.14;100.00;65945.72;5053810;28;20028;-83
2022/08/04 11:22:08;;;;;;;4.25;2.80;;;;;;;-148.14;100.00;65945.72;5020549;28;20087;-84
2022/08/04 11:24:52;;;;;;;6.25;2.60;;;;;;;-148.14;100.00;65945.72;5020993;28;20083;-83
2022/08/04 11:27:30;;;;;;;8.07;2.95;;;;;;;-148.14;100.00;65945.72;5033283;28;20103;-84
2022/08/04 11:30:09;;;;;;;8.40;3.55;;;;;;;-148.14;100.00;65945.72;5005053;28;20450;-84
2022/08/04 11:32:48;;;;;;;6.35;2.60;;;;;;;-148.14;100.00;65945.72;5036669;28;20108;-84
2022/08/04 11:35:45;;;;;;;7.57;3.40;;;;;;;-148.14;100.00;65945.72;5030656;28;20116;-84
2022/08/04 11:38:31;;;;;;;8.00;2.80;;;;;;;-148.14;100.00;65945.72;5036681;28;20435;-84
2022/08/04 11:41:03;;;;;;;6.68;3.03;;;;;;;-148.14;100.00;65945.72;5050961;28;20391;-84
2022/08/04 11:43:39;;;;;;;8.20;3.25;;;;;;;-148.14;100.00;65945.72;5016675;28;20057;-82
2022/08/04 11:46:11;;;;;;;3.20;2.40;;;;;;;-148.14;100.00;65945.72;5034679;28;20033;-84
2022/08/04 11:48:53;;;;;;;3.42;2.30;;;;;;;-148.14;100.00;65945.72;5036829;28;20056;-83
2022/08/04 11:51:21;;;;;;;2.30;1.92;;;;;;;-148.14;100.00;65945.72;5036617;28;20115;-84
2022/08/04 11:53:49;;;;;;;5.07;2.08;;;;;;;-148.14;100.00;65945.72;5023841;28;20040;-82